sensor_id;sensor_type;location;lat;lon;timestamp;P1;durP1;ratioP1;P2;durP2;ratioP2
57627;SDS011;43451;49.060;10.616;2022-07-23T00:00:10;9.15;;;7.22;;
57627;SDS011;43451;49.060;10.616;2022-07-23T00:02:36;12.55;;;7.65;;
57627;SDS011;43451;49.060;10.616;2022-07-23T00:05:02;10.63;;;8.20;;
57627;SDS011;43451;49.060;10.616;2022-07-23T00:07:27;11.15;;;8.07;;
57627;SDS011;43451;49.060;10.616;2022-07-23T00:09:53;11.82;;;7.72;;
57627;SDS011;43451;49.060;10.616;2022-07-23T00:12:18;8.98;;;7.63;;
57627;SDS011;43451;49.060;10.616;2022-07-23T00:14:44;11.77;;;7.72;;
57627;SDS011;43451;49.060;10.616;2022-07-23T00:17:09;11.32;;;7.32;;
57627;SDS011;43451;49.060;10.616;2022-07-23T00:19:35;9.57;;;7.47;;
57627;SDS011;43451;49.060;10.616;2022-07-23T00:22:00;10.20;;;7.22;;
57627;SDS011;43451;49.060;10.616;2022-07-23T00:24:26;10.60;;;7.50;;
57627;SDS011;43451;49.060;10.616;2022-07-23T00:26:51;9.15;;;7.10;;
57627;SDS011;43451;49.060;10.616;2022-07-23T00:29:17;8.05;;;7.20;;
57627;SDS011;43451;49.060;10.616;2022-07-23T00:31:42;9.90;;;7.30;;
57627;SDS011;43451;49.060;10.616;2022-07-23T00:34:07;9.52;;;7.07;;
57627;SDS011;43451;49.060;10.616;2022-07-23T00:36:33;8.13;;;7.05;;
57627;SDS011;43451;49.060;10.616;2022-07-23T00:38:58;8.07;;;7.18;;
57627;SDS011;43451;49.060;10.616;2022-07-23T00:41:24;11.20;;;7.30;;
57627;SDS011;43451;49.060;10.616;2022-07-23T00:43:49;8.68;;;7.53;;
57627;SDS011;43451;49.060;10.616;2022-07-23T00:46:19;8.95;;;6.97;;
57627;SDS011;43451;49.060;10.616;2022-07-23T00:48:45;12.07;;;7.18;;
57627;SDS011;43451;49.060;10.616;2022-07-23T00:51:10;9.82;;;7.22;;
57627;SDS011;43451;49.060;10.616;2022-07-23T00:53:36;10.63;;;7.35;;
57627;SDS011;43451;49.060;10.616;2022-07-23T00:56:01;9.38;;;7.40;;
57627;SDS011;43451;49.060;10.616;2022-07-23T00:58:27;8.43;;;7.40;;
57627;SDS011;43451;49.060;10.616;2022-07-23T01:00:52;8.05;;;7.22;;
57627;SDS011;43451;49.060;10.616;2022-07-23T01:03:18;10.10;;;7.60;;
57627;SDS011;43451;49.060;10.616;2022-07-23T01:05:44;10.43;;;7.30;;
57627;SDS011;43451;49.060;10.616;2022-07-23T01:08:09;7.88;;;7.03;;
57627;SDS011;43451;49.060;10.616;2022-07-23T01:10:36;9.77;;;7.32;;
57627;SDS011;43451;49.060;10.616;2022-07-23T01:13:05;10.07;;;7.60;;
57627;SDS011;43451;49.060;10.616;2022-07-23T01:15:34;10.35;;;7.50;;
57627;SDS011;43451;49.060;10.616;2022-07-23T01:18:01;9.27;;;7.65;;
57627;SDS011;43451;49.060;10.616;2022-07-23T01:20:27;9.33;;;7.63;;
57627;SDS011;43451;49.060;10.616;2022-07-23T01:22:52;9.48;;;8.10;;
57627;SDS011;43451;49.060;10.616;2022-07-23T01:25:19;9.98;;;7.45;;
57627;SDS011;43451;49.060;10.616;2022-07-23T01:27:44;9.68;;;7.55;;
57627;SDS011;43451;49.060;10.616;2022-07-23T01:30:10;8.32;;;7.45;;
57627;SDS011;43451;49.060;10.616;2022-07-23T01:32:37;10.75;;;7.57;;
57627;SDS011;43451;49.060;10.616;2022-07-23T01:35:03;12.77;;;7.80;;
57627;SDS011;43451;49.060;10.616;2022-07-23T01:37:29;10.90;;;7.67;;
57627;SDS011;43451;49.060;10.616;2022-07-23T01:39:55;9.77;;;7.75;;
57627;SDS011;43451;49.060;10.616;2022-07-23T01:42:20;11.38;;;7.82;;
57627;SDS011;43451;49.060;10.616;2022-07-23T01:44:45;8.25;;;7.43;;
57627;SDS011;43451;49.060;10.616;2022-07-23T01:47:11;9.52;;;7.38;;
57627;SDS011;43451;49.060;10.616;2022-07-23T01:49:36;8.85;;;7.30;;
57627;SDS011;43451;49.060;10.616;2022-07-23T01:52:02;12.55;;;8.05;;
57627;SDS011;43451;49.060;10.616;2022-07-23T01:54:30;9.85;;;8.25;;
57627;SDS011;43451;49.060;10.616;2022-07-23T01:56:58;9.55;;;8.25;;
57627;SDS011;43451;49.060;10.616;2022-07-23T01:59:24;11.60;;;7.97;;
57627;SDS011;43451;49.060;10.616;2022-07-23T02:01:51;10.67;;;7.67;;
57627;SDS011;43451;49.060;10.616;2022-07-23T02:04:18;11.02;;;7.32;;
57627;SDS011;43451;49.060;10.616;2022-07-23T02:06:44;10.88;;;7.18;;
57627;SDS011;43451;49.060;10.616;2022-07-23T02:09:10;9.07;;;6.93;;
57627;SDS011;43451;49.060;10.616;2022-07-23T02:11:35;10.00;;;6.50;;
57627;SDS011;43451;49.060;10.616;2022-07-23T02:14:01;6.93;;;6.03;;
57627;SDS011;43451;49.060;10.616;2022-07-23T02:16:26;7.88;;;6.22;;
57627;SDS011;43451;49.060;10.616;2022-07-23T02:18:52;9.63;;;6.40;;
57627;SDS011;43451;49.060;10.616;2022-07-23T02:21:17;7.72;;;6.13;;
57627;SDS011;43451;49.060;10.616;2022-07-23T02:23:43;7.25;;;6.55;;
57627;SDS011;43451;49.060;10.616;2022-07-23T02:26:08;8.85;;;6.13;;
57627;SDS011;43451;49.060;10.616;2022-07-23T02:28:33;7.97;;;5.55;;
57627;SDS011;43451;49.060;10.616;2022-07-23T02:30:59;9.02;;;6.00;;
57627;SDS011;43451;49.060;10.616;2022-07-23T02:33:27;6.97;;;5.90;;
57627;SDS011;43451;49.060;10.616;2022-07-23T02:35:53;8.10;;;6.22;;
57627;SDS011;43451;49.060;10.616;2022-07-23T02:38:18;9.15;;;6.47;;
57627;SDS011;43451;49.060;10.616;2022-07-23T02:40:44;7.38;;;6.38;;
57627;SDS011;43451;49.060;10.616;2022-07-23T02:43:09;7.97;;;6.60;;
57627;SDS011;43451;49.060;10.616;2022-07-23T02:45:35;7.25;;;6.13;;
57627;SDS011;43451;49.060;10.616;2022-07-23T02:48:00;7.80;;;6.25;;
57627;SDS011;43451;49.060;10.616;2022-07-23T02:50:26;11.68;;;6.93;;
57627;SDS011;43451;49.060;10.616;2022-07-23T02:52:51;8.30;;;6.38;;
57627;SDS011;43451;49.060;10.616;2022-07-23T02:55:16;6.82;;;6.13;;
57627;SDS011;43451;49.060;10.616;2022-07-23T02:57:42;7.18;;;5.82;;
57627;SDS011;43451;49.060;10.616;2022-07-23T03:00:07;7.13;;;6.00;;
57627;SDS011;43451;49.060;10.616;2022-07-23T03:02:33;8.13;;;6.53;;
57627;SDS011;43451;49.060;10.616;2022-07-23T03:04:59;7.28;;;6.45;;
57627;SDS011;43451;49.060;10.616;2022-07-23T03:07:25;7.25;;;6.45;;
57627;SDS011;43451;49.060;10.616;2022-07-23T03:09:50;8.07;;;6.68;;
57627;SDS011;43451;49.060;10.616;2022-07-23T03:12:15;6.82;;;5.82;;
57627;SDS011;43451;49.060;10.616;2022-07-23T03:14:44;6.45;;;5.80;;
57627;SDS011;43451;49.060;10.616;2022-07-23T03:17:09;7.45;;;5.68;;
57627;SDS011;43451;49.060;10.616;2022-07-23T03:19:35;7.25;;;5.85;;
57627;SDS011;43451;49.060;10.616;2022-07-23T03:22:01;7.93;;;6.40;;
57627;SDS011;43451;49.060;10.616;2022-07-23T03:24:27;7.50;;;6.10;;
57627;SDS011;43451;49.060;10.616;2022-07-23T03:27:12;8.82;;;5.75;;
57627;SDS011;43451;49.060;10.616;2022-07-23T03:29:38;6.50;;;5.80;;
57627;SDS011;43451;49.060;10.616;2022-07-23T03:32:03;5.93;;;5.10;;
57627;SDS011;43451;49.060;10.616;2022-07-23T03:34:29;6.05;;;5.32;;
57627;SDS011;43451;49.060;10.616;2022-07-23T03:36:54;6.65;;;5.20;;
57627;SDS011;43451;49.060;10.616;2022-07-23T03:39:20;6.97;;;5.60;;
57627;SDS011;43451;49.060;10.616;2022-07-23T03:41:45;8.63;;;5.22;;
57627;SDS011;43451;49.060;10.616;2022-07-23T03:44:11;6.82;;;5.20;;
57627;SDS011;43451;49.060;10.616;2022-07-23T03:46:36;6.22;;;5.53;;
57627;SDS011;43451;49.060;10.616;2022-07-23T03:49:01;7.05;;;5.43;;
57627;SDS011;43451;49.060;10.616;2022-07-23T03:51:27;6.30;;;5.70;;
57627;SDS011;43451;49.060;10.616;2022-07-23T03:53:52;6.20;;;5.30;;
57627;SDS011;43451;49.060;10.616;2022-07-23T03:56:17;11.68;;;5.55;;
57627;SDS011;43451;49.060;10.616;2022-07-23T03:58:43;7.05;;;5.05;;
57627;SDS011;43451;49.060;10.616;2022-07-23T04:01:08;6.60;;;5.40;;
57627;SDS011;43451;49.060;10.616;2022-07-23T04:03:33;6.15;;;5.40;;
57627;SDS011;43451;49.060;10.616;2022-07-23T04:05:59;7.80;;;5.75;;
57627;SDS011;43451;49.060;10.616;2022-07-23T04:08:24;6.93;;;5.70;;
57627;SDS011;43451;49.060;10.616;2022-07-23T04:10:50;6.82;;;5.63;;
57627;SDS011;43451;49.060;10.616;2022-07-23T04:13:16;6.60;;;5.50;;
57627;SDS011;43451;49.060;10.616;2022-07-23T04:15:41;7.72;;;5.68;;
57627;SDS011;43451;49.060;10.616;2022-07-23T04:18:06;6.15;;;5.55;;
57627;SDS011;43451;49.060;10.616;2022-07-23T04:20:32;6.75;;;5.97;;
57627;SDS011;43451;49.060;10.616;2022-07-23T04:22:58;7.25;;;5.50;;
57627;SDS011;43451;49.060;10.616;2022-07-23T04:25:23;7.20;;;5.82;;
57627;SDS011;43451;49.060;10.616;2022-07-23T04:27:49;6.88;;;5.60;;
57627;SDS011;43451;49.060;10.616;2022-07-23T04:30:14;8.10;;;5.55;;
57627;SDS011;43451;49.060;10.616;2022-07-23T04:32:39;6.80;;;5.72;;
57627;SDS011;43451;49.060;10.616;2022-07-23T04:35:05;7.40;;;6.00;;
57627;SDS011;43451;49.060;10.616;2022-07-23T04:37:30;9.45;;;5.72;;
57627;SDS011;43451;49.060;10.616;2022-07-23T04:39:56;9.13;;;5.80;;
57627;SDS011;43451;49.060;10.616;2022-07-23T04:42:21;7.60;;;5.93;;
57627;SDS011;43451;49.060;10.616;2022-07-23T04:44:46;9.32;;;6.28;;
57627;SDS011;43451;49.060;10.616;2022-07-23T04:47:12;7.53;;;6.40;;
57627;SDS011;43451;49.060;10.616;2022-07-23T04:49:37;7.82;;;6.05;;
57627;SDS011;43451;49.060;10.616;2022-07-23T04:52:03;7.93;;;6.15;;
57627;SDS011;43451;49.060;10.616;2022-07-23T04:54:28;6.50;;;5.88;;
57627;SDS011;43451;49.060;10.616;2022-07-23T04:56:53;6.90;;;6.10;;
57627;SDS011;43451;49.060;10.616;2022-07-23T04:59:19;7.60;;;6.10;;
57627;SDS011;43451;49.060;10.616;2022-07-23T05:01:44;6.55;;;5.90;;
57627;SDS011;43451;49.060;10.616;2022-07-23T05:04:09;6.40;;;5.80;;
57627;SDS011;43451;49.060;10.616;2022-07-23T05:06:35;6.75;;;5.80;;
57627;SDS011;43451;49.060;10.616;2022-07-23T05:09:00;7.78;;;6.45;;
57627;SDS011;43451;49.060;10.616;2022-07-23T05:11:26;8.60;;;6.03;;
57627;SDS011;43451;49.060;10.616;2022-07-23T05:13:51;7.72;;;5.90;;
57627;SDS011;43451;49.060;10.616;2022-07-23T05:16:16;6.30;;;5.70;;
57627;SDS011;43451;49.060;10.616;2022-07-23T05:18:42;7.63;;;6.15;;
57627;SDS011;43451;49.060;10.616;2022-07-23T05:21:07;7.18;;;6.47;;
57627;SDS011;43451;49.060;10.616;2022-07-23T05:23:32;8.13;;;6.40;;
57627;SDS011;43451;49.060;10.616;2022-07-23T05:25:58;7.00;;;6.13;;
57627;SDS011;43451;49.060;10.616;2022-07-23T05:28:23;7.10;;;6.22;;
57627;SDS011;43451;49.060;10.616;2022-07-23T05:30:48;7.68;;;6.20;;
57627;SDS011;43451;49.060;10.616;2022-07-23T05:33:14;7.25;;;6.00;;
57627;SDS011;43451;49.060;10.616;2022-07-23T05:35:39;6.82;;;5.63;;
57627;SDS011;43451;49.060;10.616;2022-07-23T05:38:05;10.15;;;6.22;;
57627;SDS011;43451;49.060;10.616;2022-07-23T05:40:30;6.70;;;6.03;;
57627;SDS011;43451;49.060;10.616;2022-07-23T05:42:55;7.13;;;6.43;;
57627;SDS011;43451;49.060;10.616;2022-07-23T05:45:21;6.70;;;6.00;;
57627;SDS011;43451;49.060;10.616;2022-07-23T05:47:47;6.70;;;5.90;;
57627;SDS011;43451;49.060;10.616;2022-07-23T05:50:15;7.07;;;5.75;;
57627;SDS011;43451;49.060;10.616;2022-07-23T05:52:41;6.88;;;6.18;;
57627;SDS011;43451;49.060;10.616;2022-07-23T05:55:07;8.98;;;6.28;;
57627;SDS011;43451;49.060;10.616;2022-07-23T05:57:34;8.73;;;6.32;;
57627;SDS011;43451;49.060;10.616;2022-07-23T06:00:00;6.60;;;5.32;;
57627;SDS011;43451;49.060;10.616;2022-07-23T06:02:26;8.05;;;5.72;;
57627;SDS011;43451;49.060;10.616;2022-07-23T06:04:51;8.32;;;5.95;;
57627;SDS011;43451;49.060;10.616;2022-07-23T06:07:17;7.25;;;6.13;;
57627;SDS011;43451;49.060;10.616;2022-07-23T06:09:42;7.55;;;5.47;;
57627;SDS011;43451;49.060;10.616;2022-07-23T06:12:07;6.68;;;5.97;;
57627;SDS011;43451;49.060;10.616;2022-07-23T06:14:33;8.35;;;6.22;;
57627;SDS011;43451;49.060;10.616;2022-07-23T06:16:58;6.07;;;5.40;;
57627;SDS011;43451;49.060;10.616;2022-07-23T06:19:24;7.15;;;5.97;;
57627;SDS011;43451;49.060;10.616;2022-07-23T06:21:50;6.82;;;6.18;;
57627;SDS011;43451;49.060;10.616;2022-07-23T06:24:15;7.15;;;5.53;;
57627;SDS011;43451;49.060;10.616;2022-07-23T06:26:41;8.70;;;6.13;;
57627;SDS011;43451;49.060;10.616;2022-07-23T06:29:06;6.25;;;5.65;;
57627;SDS011;43451;49.060;10.616;2022-07-23T06:31:32;7.68;;;5.82;;
57627;SDS011;43451;49.060;10.616;2022-07-23T06:33:57;6.40;;;5.80;;
57627;SDS011;43451;49.060;10.616;2022-07-23T06:36:23;6.90;;;5.43;;
57627;SDS011;43451;49.060;10.616;2022-07-23T06:38:48;7.93;;;5.65;;
57627;SDS011;43451;49.060;10.616;2022-07-23T06:41:13;6.63;;;5.47;;
57627;SDS011;43451;49.060;10.616;2022-07-23T06:43:39;6.65;;;5.88;;
57627;SDS011;43451;49.060;10.616;2022-07-23T06:46:04;6.85;;;5.25;;
57627;SDS011;43451;49.060;10.616;2022-07-23T06:48:29;6.93;;;5.57;;
57627;SDS011;43451;49.060;10.616;2022-07-23T06:50:55;7.35;;;5.97;;
57627;SDS011;43451;49.060;10.616;2022-07-23T06:53:20;6.57;;;5.68;;
57627;SDS011;43451;49.060;10.616;2022-07-23T06:55:46;6.18;;;5.57;;
57627;SDS011;43451;49.060;10.616;2022-07-23T06:58:11;5.93;;;5.15;;
57627;SDS011;43451;49.060;10.616;2022-07-23T07:00:38;8.85;;;5.78;;
57627;SDS011;43451;49.060;10.616;2022-07-23T07:03:04;8.40;;;5.35;;
57627;SDS011;43451;49.060;10.616;2022-07-23T07:05:29;7.22;;;5.43;;
57627;SDS011;43451;49.060;10.616;2022-07-23T07:07:55;6.32;;;5.40;;
57627;SDS011;43451;49.060;10.616;2022-07-23T07:10:20;5.63;;;4.95;;
57627;SDS011;43451;49.060;10.616;2022-07-23T07:12:46;7.90;;;4.97;;
57627;SDS011;43451;49.060;10.616;2022-07-23T07:15:11;5.90;;;5.38;;
57627;SDS011;43451;49.060;10.616;2022-07-23T07:17:37;8.43;;;5.47;;
57627;SDS011;43451;49.060;10.616;2022-07-23T07:20:02;8.65;;;5.50;;
57627;SDS011;43451;49.060;10.616;2022-07-23T07:22:29;5.88;;;5.13;;
57627;SDS011;43451;49.060;10.616;2022-07-23T07:24:54;6.20;;;5.07;;
57627;SDS011;43451;49.060;10.616;2022-07-23T07:27:20;6.75;;;5.05;;
57627;SDS011;43451;49.060;10.616;2022-07-23T07:29:45;9.23;;;5.65;;
57627;SDS011;43451;49.060;10.616;2022-07-23T07:32:10;5.80;;;5.20;;
57627;SDS011;43451;49.060;10.616;2022-07-23T07:34:36;6.22;;;5.30;;
57627;SDS011;43451;49.060;10.616;2022-07-23T07:37:01;8.50;;;7.60;;
57627;SDS011;43451;49.060;10.616;2022-07-23T07:39:27;6.63;;;5.07;;
57627;SDS011;43451;49.060;10.616;2022-07-23T07:41:52;7.15;;;5.05;;
57627;SDS011;43451;49.060;10.616;2022-07-23T07:44:17;7.43;;;5.10;;
57627;SDS011;43451;49.060;10.616;2022-07-23T07:46:43;6.03;;;5.20;;
57627;SDS011;43451;49.060;10.616;2022-07-23T07:49:08;6.35;;;5.35;;
57627;SDS011;43451;49.060;10.616;2022-07-23T07:51:33;7.03;;;5.40;;
57627;SDS011;43451;49.060;10.616;2022-07-23T07:53:59;6.13;;;5.53;;
57627;SDS011;43451;49.060;10.616;2022-07-23T07:56:25;5.82;;;5.32;;
57627;SDS011;43451;49.060;10.616;2022-07-23T07:58:50;5.93;;;5.32;;
57627;SDS011;43451;49.060;10.616;2022-07-23T08:01:15;6.07;;;5.18;;
57627;SDS011;43451;49.060;10.616;2022-07-23T08:03:42;7.07;;;5.30;;
57627;SDS011;43451;49.060;10.616;2022-07-23T08:06:07;5.88;;;5.28;;
57627;SDS011;43451;49.060;10.616;2022-07-23T08:08:32;9.07;;;5.88;;
57627;SDS011;43451;49.060;10.616;2022-07-23T08:10:58;6.40;;;5.70;;
57627;SDS011;43451;49.060;10.616;2022-07-23T08:13:23;11.68;;;6.65;;
57627;SDS011;43451;49.060;10.616;2022-07-23T08:15:49;9.32;;;5.80;;
57627;SDS011;43451;49.060;10.616;2022-07-23T08:18:14;8.95;;;5.80;;
57627;SDS011;43451;49.060;10.616;2022-07-23T08:20:40;7.43;;;6.00;;
57627;SDS011;43451;49.060;10.616;2022-07-23T08:23:06;9.00;;;5.80;;
57627;SDS011;43451;49.060;10.616;2022-07-23T08:25:34;6.70;;;5.93;;
57627;SDS011;43451;49.060;10.616;2022-07-23T08:28:02;6.63;;;5.65;;
57627;SDS011;43451;49.060;10.616;2022-07-23T08:30:30;7.50;;;5.72;;
57627;SDS011;43451;49.060;10.616;2022-07-23T08:32:57;6.57;;;5.65;;
57627;SDS011;43451;49.060;10.616;2022-07-23T08:35:28;6.63;;;5.60;;
57627;SDS011;43451;49.060;10.616;2022-07-23T08:37:55;8.73;;;6.25;;
57627;SDS011;43451;49.060;10.616;2022-07-23T08:40:26;9.48;;;5.82;;
57627;SDS011;43451;49.060;10.616;2022-07-23T08:42:53;8.25;;;5.80;;
57627;SDS011;43451;49.060;10.616;2022-07-23T08:45:19;19.33;;;7.82;;
57627;SDS011;43451;49.060;10.616;2022-07-23T08:47:50;6.07;;;5.45;;
57627;SDS011;43451;49.060;10.616;2022-07-23T08:50:17;7.38;;;5.80;;
57627;SDS011;43451;49.060;10.616;2022-07-23T08:52:43;6.72;;;5.40;;
57627;SDS011;43451;49.060;10.616;2022-07-23T08:55:09;9.40;;;5.65;;
57627;SDS011;43451;49.060;10.616;2022-07-23T08:57:34;7.85;;;5.68;;
57627;SDS011;43451;49.060;10.616;2022-07-23T09:00:00;6.55;;;5.65;;
57627;SDS011;43451;49.060;10.616;2022-07-23T09:02:26;7.13;;;5.55;;
57627;SDS011;43451;49.060;10.616;2022-07-23T09:04:51;5.68;;;5.05;;
57627;SDS011;43451;49.060;10.616;2022-07-23T09:07:17;6.28;;;5.38;;
57627;SDS011;43451;49.060;10.616;2022-07-23T09:09:43;6.22;;;5.18;;
57627;SDS011;43451;49.060;10.616;2022-07-23T09:12:09;6.65;;;5.00;;
57627;SDS011;43451;49.060;10.616;2022-07-23T09:14:48;10.82;;;5.00;;
57627;SDS011;43451;49.060;10.616;2022-07-23T09:17:15;5.82;;;4.88;;
57627;SDS011;43451;49.060;10.616;2022-07-23T09:19:43;5.38;;;4.50;;
57627;SDS011;43451;49.060;10.616;2022-07-23T09:25:04;5.53;;;4.35;;
57627;SDS011;43451;49.060;10.616;2022-07-23T09:27:46;5.10;;;4.60;;
57627;SDS011;43451;49.060;10.616;2022-07-23T09:30:15;5.13;;;4.63;;
57627;SDS011;43451;49.060;10.616;2022-07-23T09:32:41;6.88;;;4.88;;
57627;SDS011;43451;49.060;10.616;2022-07-23T09:35:06;6.00;;;4.72;;
57627;SDS011;43451;49.060;10.616;2022-07-23T09:37:32;6.05;;;4.45;;
57627;SDS011;43451;49.060;10.616;2022-07-23T09:40:09;5.78;;;4.75;;
57627;SDS011;43451;49.060;10.616;2022-07-23T09:42:38;6.80;;;4.38;;
57627;SDS011;43451;49.060;10.616;2022-07-23T09:45:03;5.00;;;4.50;;
57627;SDS011;43451;49.060;10.616;2022-07-23T09:47:35;6.35;;;4.68;;
57627;SDS011;43451;49.060;10.616;2022-07-23T09:50:02;4.97;;;4.50;;
57627;SDS011;43451;49.060;10.616;2022-07-23T09:52:30;7.40;;;4.70;;
57627;SDS011;43451;49.060;10.616;2022-07-23T09:54:58;5.20;;;4.43;;
57627;SDS011;43451;49.060;10.616;2022-07-23T09:57:28;6.55;;;4.95;;
57627;SDS011;43451;49.060;10.616;2022-07-23T09:59:57;5.30;;;4.50;;
57627;SDS011;43451;49.060;10.616;2022-07-23T10:02:25;6.72;;;4.80;;
57627;SDS011;43451;49.060;10.616;2022-07-23T10:04:53;141.13;;;12.07;;
57627;SDS011;43451;49.060;10.616;2022-07-23T10:07:21;6.75;;;4.90;;
57627;SDS011;43451;49.060;10.616;2022-07-23T10:09:48;5.10;;;4.60;;
57627;SDS011;43451;49.060;10.616;2022-07-23T10:12:17;5.10;;;4.60;;
57627;SDS011;43451;49.060;10.616;2022-07-23T10:14:47;5.93;;;4.82;;
57627;SDS011;43451;49.060;10.616;2022-07-23T10:17:13;4.68;;;4.18;;
57627;SDS011;43451;49.060;10.616;2022-07-23T10:19:40;5.45;;;4.88;;
57627;SDS011;43451;49.060;10.616;2022-07-23T10:22:06;7.20;;;4.65;;
57627;SDS011;43451;49.060;10.616;2022-07-23T10:32:40;6.38;;;5.00;;
57627;SDS011;43451;49.060;10.616;2022-07-23T10:38:37;4.80;;;4.40;;
57627;SDS011;43451;49.060;10.616;2022-07-23T10:41:05;4.72;;;4.32;;
57627;SDS011;43451;49.060;10.616;2022-07-23T10:43:31;4.63;;;4.22;;
57627;SDS011;43451;49.060;10.616;2022-07-23T10:46:21;6.57;;;4.35;;
57627;SDS011;43451;49.060;10.616;2022-07-23T10:54:38;4.78;;;4.28;;
57627;SDS011;43451;49.060;10.616;2022-07-23T10:57:05;5.15;;;4.60;;
57627;SDS011;43451;49.060;10.616;2022-07-23T11:00:07;6.20;;;4.70;;
57627;SDS011;43451;49.060;10.616;2022-07-23T11:02:23;4.82;;;4.18;;
57627;SDS011;43451;49.060;10.616;2022-07-23T11:04:50;4.97;;;4.40;;
57627;SDS011;43451;49.060;10.616;2022-07-23T11:07:17;4.60;;;4.15;;
57627;SDS011;43451;49.060;10.616;2022-07-23T11:09:43;4.70;;;4.30;;
57627;SDS011;43451;49.060;10.616;2022-07-23T11:17:26;5.18;;;4.07;;
57627;SDS011;43451;49.060;10.616;2022-07-23T11:22:36;5.28;;;4.05;;
57627;SDS011;43451;49.060;10.616;2022-07-23T11:25:11;9.70;;;4.45;;
57627;SDS011;43451;49.060;10.616;2022-07-23T11:27:39;6.53;;;4.07;;
57627;SDS011;43451;49.060;10.616;2022-07-23T11:30:11;4.80;;;3.95;;
57627;SDS011;43451;49.060;10.616;2022-07-23T11:35:34;4.20;;;3.80;;
57627;SDS011;43451;49.060;10.616;2022-07-23T11:38:05;4.80;;;4.00;;
57627;SDS011;43451;49.060;10.616;2022-07-23T11:40:33;14.82;;;5.20;;
57627;SDS011;43451;49.060;10.616;2022-07-23T11:43:00;4.53;;;3.83;;
57627;SDS011;43451;49.060;10.616;2022-07-23T11:45:32;5.88;;;4.38;;
57627;SDS011;43451;49.060;10.616;2022-07-23T11:48:07;4.97;;;3.92;;
57627;SDS011;43451;49.060;10.616;2022-07-23T11:50:35;4.72;;;3.85;;
57627;SDS011;43451;49.060;10.616;2022-07-23T11:53:02;8.60;;;4.22;;
57627;SDS011;43451;49.060;10.616;2022-07-23T11:55:28;5.32;;;4.03;;
57627;SDS011;43451;49.060;10.616;2022-07-23T11:57:55;4.28;;;3.88;;
57627;SDS011;43451;49.060;10.616;2022-07-23T12:00:21;4.73;;;4.23;;
57627;SDS011;43451;49.060;10.616;2022-07-23T12:02:53;4.85;;;3.95;;
57627;SDS011;43451;49.060;10.616;2022-07-23T12:05:22;5.32;;;4.35;;
57627;SDS011;43451;49.060;10.616;2022-07-23T12:07:51;5.03;;;4.10;;
57627;SDS011;43451;49.060;10.616;2022-07-23T12:10:18;7.22;;;4.25;;
57627;SDS011;43451;49.060;10.616;2022-07-23T12:12:45;10.32;;;4.80;;
57627;SDS011;43451;49.060;10.616;2022-07-23T12:17:59;5.63;;;4.60;;
57627;SDS011;43451;49.060;10.616;2022-07-23T12:20:27;6.90;;;4.45;;
57627;SDS011;43451;49.060;10.616;2022-07-23T12:22:56;4.95;;;4.47;;
57627;SDS011;43451;49.060;10.616;2022-07-23T12:25:25;6.22;;;4.60;;
57627;SDS011;43451;49.060;10.616;2022-07-23T12:30:40;6.13;;;4.20;;
57627;SDS011;43451;49.060;10.616;2022-07-23T12:33:08;5.97;;;4.25;;
57627;SDS011;43451;49.060;10.616;2022-07-23T12:35:39;5.13;;;4.28;;
57627;SDS011;43451;49.060;10.616;2022-07-23T12:38:08;6.38;;;5.00;;
57627;SDS011;43451;49.060;10.616;2022-07-23T12:40:37;4.97;;;4.35;;
57627;SDS011;43451;49.060;10.616;2022-07-23T12:43:08;5.65;;;4.57;;
57627;SDS011;43451;49.060;10.616;2022-07-23T12:45:43;5.03;;;4.30;;
57627;SDS011;43451;49.060;10.616;2022-07-23T12:48:14;4.85;;;4.35;;
57627;SDS011;43451;49.060;10.616;2022-07-23T12:50:43;5.00;;;4.50;;
57627;SDS011;43451;49.060;10.616;2022-07-23T12:53:18;9.38;;;5.00;;
57627;SDS011;43451;49.060;10.616;2022-07-23T12:55:45;10.63;;;4.80;;
57627;SDS011;43451;49.060;10.616;2022-07-23T12:58:15;4.80;;;4.40;;
57627;SDS011;43451;49.060;10.616;2022-07-23T13:00:51;5.13;;;4.60;;
57627;SDS011;43451;49.060;10.616;2022-07-23T13:05:50;5.13;;;4.68;;
57627;SDS011;43451;49.060;10.616;2022-07-23T13:08:16;6.72;;;4.70;;
57627;SDS011;43451;49.060;10.616;2022-07-23T13:10:42;5.38;;;4.70;;
57627;SDS011;43451;49.060;10.616;2022-07-23T13:13:09;4.70;;;4.30;;
57627;SDS011;43451;49.060;10.616;2022-07-23T13:15:35;4.68;;;4.28;;
57627;SDS011;43451;49.060;10.616;2022-07-23T13:18:00;4.68;;;4.20;;
57627;SDS011;43451;49.060;10.616;2022-07-23T13:20:26;5.03;;;4.40;;
57627;SDS011;43451;49.060;10.616;2022-07-23T13:22:54;4.72;;;4.32;;
57627;SDS011;43451;49.060;10.616;2022-07-23T13:25:20;5.03;;;4.15;;
57627;SDS011;43451;49.060;10.616;2022-07-23T13:27:45;6.18;;;4.07;;
57627;SDS011;43451;49.060;10.616;2022-07-23T13:30:11;6.43;;;4.40;;
57627;SDS011;43451;49.060;10.616;2022-07-23T13:32:36;4.45;;;4.05;;
57627;SDS011;43451;49.060;10.616;2022-07-23T13:35:02;5.65;;;3.92;;
57627;SDS011;43451;49.060;10.616;2022-07-23T13:37:29;7.60;;;4.65;;
57627;SDS011;43451;49.060;10.616;2022-07-23T13:39:54;13.05;;;4.40;;
57627;SDS011;43451;49.060;10.616;2022-07-23T13:42:19;6.30;;;4.50;;
57627;SDS011;43451;49.060;10.616;2022-07-23T13:44:45;4.47;;;4.07;;
57627;SDS011;43451;49.060;10.616;2022-07-23T13:47:10;9.80;;;4.22;;
57627;SDS011;43451;49.060;10.616;2022-07-23T13:49:36;6.35;;;4.22;;
57627;SDS011;43451;49.060;10.616;2022-07-23T13:52:02;5.57;;;4.20;;
57627;SDS011;43451;49.060;10.616;2022-07-23T13:54:28;7.35;;;4.10;;
57627;SDS011;43451;49.060;10.616;2022-07-23T13:56:54;11.68;;;4.03;;
57627;SDS011;43451;49.060;10.616;2022-07-23T13:59:20;7.20;;;4.30;;
57627;SDS011;43451;49.060;10.616;2022-07-23T14:01:46;4.50;;;3.95;;
57627;SDS011;43451;49.060;10.616;2022-07-23T14:04:11;5.03;;;4.53;;
57627;SDS011;43451;49.060;10.616;2022-07-23T14:06:37;6.07;;;4.50;;
57627;SDS011;43451;49.060;10.616;2022-07-23T14:09:02;4.88;;;4.35;;
57627;SDS011;43451;49.060;10.616;2022-07-23T14:11:27;4.55;;;4.15;;
57627;SDS011;43451;49.060;10.616;2022-07-23T14:13:55;4.93;;;4.30;;
57627;SDS011;43451;49.060;10.616;2022-07-23T14:16:21;6.20;;;4.40;;
57627;SDS011;43451;49.060;10.616;2022-07-23T14:18:46;5.63;;;4.78;;
57627;SDS011;43451;49.060;10.616;2022-07-23T14:21:12;5.20;;;4.60;;
57627;SDS011;43451;49.060;10.616;2022-07-23T14:23:38;6.28;;;4.35;;
57627;SDS011;43451;49.060;10.616;2022-07-23T14:26:03;5.13;;;4.63;;
57627;SDS011;43451;49.060;10.616;2022-07-23T14:28:29;5.10;;;4.60;;
57627;SDS011;43451;49.060;10.616;2022-07-23T14:30:54;4.70;;;4.22;;
57627;SDS011;43451;49.060;10.616;2022-07-23T14:33:19;5.45;;;4.55;;
57627;SDS011;43451;49.060;10.616;2022-07-23T14:35:45;8.35;;;4.60;;
57627;SDS011;43451;49.060;10.616;2022-07-23T14:38:11;6.07;;;4.45;;
57627;SDS011;43451;49.060;10.616;2022-07-23T14:40:37;5.57;;;4.53;;
57627;SDS011;43451;49.060;10.616;2022-07-23T14:43:02;4.95;;;4.15;;
57627;SDS011;43451;49.060;10.616;2022-07-23T14:45:27;12.20;;;4.80;;
57627;SDS011;43451;49.060;10.616;2022-07-23T14:47:55;5.22;;;4.53;;
57627;SDS011;43451;49.060;10.616;2022-07-23T14:50:20;7.22;;;4.63;;
57627;SDS011;43451;49.060;10.616;2022-07-23T14:52:46;5.28;;;4.32;;
57627;SDS011;43451;49.060;10.616;2022-07-23T14:55:12;5.90;;;4.53;;
57627;SDS011;43451;49.060;10.616;2022-07-23T14:57:37;5.47;;;4.85;;
57627;SDS011;43451;49.060;10.616;2022-07-23T15:00:03;6.35;;;5.03;;
57627;SDS011;43451;49.060;10.616;2022-07-23T15:02:30;5.40;;;4.90;;
57627;SDS011;43451;49.060;10.616;2022-07-23T15:04:55;5.85;;;5.05;;
57627;SDS011;43451;49.060;10.616;2022-07-23T15:07:23;6.55;;;5.07;;